createdAt,value
2018-03-02T00:00:26.160Z,15.37
2018-03-02T00:02:52.447Z,16.80
2018-03-02T00:05:18.819Z,16.10
2018-03-02T00:07:44.986Z,15.40
2018-03-02T00:10:11.246Z,15.90
2018-03-02T00:12:37.555Z,15.80
2018-03-02T00:15:03.853Z,15.33
2018-03-02T00:17:30.817Z,18.13
2018-03-02T00:19:57.033Z,16.50
2018-03-02T00:22:23.352Z,14.03
2018-03-02T00:24:50.329Z,15.43
2018-03-02T00:27:16.537Z,15.60
2018-03-02T00:29:42.857Z,17.90
2018-03-02T00:32:09.870Z,17.30
2018-03-02T00:34:36.080Z,15.80
2018-03-02T00:37:02.430Z,16.80
2018-03-02T00:39:28.772Z,14.70
2018-03-02T00:41:55.851Z,14.70
2018-03-02T00:44:22.109Z,15.60
2018-03-02T00:46:48.410Z,15.50
2018-03-02T00:49:14.624Z,17.47
2018-03-02T00:51:40.969Z,15.60
2018-03-02T00:54:07.343Z,14.93
2018-03-02T00:56:33.782Z,16.27
2018-03-02T00:59:00.800Z,14.90
2018-03-02T01:01:26.996Z,17.23
2018-03-02T01:03:53.407Z,18.87
2018-03-02T01:06:20.401Z,19.53
2018-03-02T01:08:46.610Z,16.07
2018-03-02T01:11:12.960Z,15.57
2018-03-02T01:13:39.218Z,14.07
2018-03-02T01:16:06.251Z,14.23
2018-03-02T01:18:32.571Z,14.03
2018-03-02T01:20:58.828Z,17.43
2018-03-02T01:23:25.775Z,16.07
2018-03-02T01:25:52.135Z,15.20
2018-03-02T01:28:18.430Z,15.83
2018-03-02T01:30:45.553Z,14.07
2018-03-02T01:33:11.833Z,15.03
2018-03-02T01:35:38.149Z,14.10
2018-03-02T01:38:04.579Z,15.33
2018-03-02T01:40:30.919Z,13.33
2018-03-02T01:42:57.188Z,13.90
2018-03-02T01:45:23.404Z,15.43
2018-03-02T01:47:49.593Z,16.10
2018-03-02T01:50:15.799Z,17.50
2018-03-02T01:52:42.807Z,14.47
2018-03-02T01:55:09.131Z,15.60
2018-03-02T01:57:35.354Z,14.73
2018-03-02T02:00:01.755Z,16.00
2018-03-02T02:02:27.935Z,15.27
2018-03-02T02:04:54.908Z,15.03
2018-03-02T02:07:21.829Z,15.33
2018-03-02T02:09:48.807Z,14.00
2018-03-02T02:12:15.001Z,13.50
2018-03-02T02:14:42.423Z,14.37
2018-03-02T02:17:08.642Z,14.93
2018-03-02T02:19:34.790Z,19.97
2018-03-02T02:22:01.724Z,16.80
2018-03-02T02:24:27.861Z,21.30
2018-03-02T02:26:54.024Z,19.60
2018-03-02T02:29:20.184Z,20.77
2018-03-02T02:31:46.305Z,19.17
2018-03-02T02:34:13.235Z,16.03
2018-03-02T02:36:40.571Z,15.43
2018-03-02T02:39:06.730Z,18.93
2018-03-02T02:41:32.908Z,21.07
2018-03-02T02:44:06.781Z,19.77
2018-03-02T02:46:32.979Z,16.97
2018-03-02T02:48:59.341Z,15.03
2018-03-02T02:51:26.263Z,15.97
2018-03-02T02:53:52.562Z,17.17
2018-03-02T02:56:19.772Z,24.00
2018-03-02T02:58:46.678Z,21.07
2018-03-02T03:01:12.856Z,18.90
2018-03-02T03:03:39.711Z,17.37
2018-03-02T03:06:05.943Z,17.20
2018-03-02T03:08:32.132Z,16.50
2018-03-02T03:10:58.335Z,15.50
2018-03-02T03:13:25.375Z,15.30
2018-03-02T03:15:51.606Z,18.53
2018-03-02T03:18:17.801Z,20.23
2018-03-02T03:20:43.956Z,20.30
2018-03-02T03:23:10.234Z,18.63
2018-03-02T03:25:36.381Z,23.27
2018-03-02T03:28:02.682Z,24.57
2018-03-02T03:30:28.864Z,21.70
2018-03-02T03:32:56.514Z,18.80
2018-03-02T03:35:22.747Z,16.63
2018-03-02T03:37:49.096Z,15.03
2018-03-02T03:40:15.266Z,14.17
2018-03-02T03:42:41.444Z,17.03
2018-03-02T03:45:08.336Z,15.37
2018-03-02T03:47:34.458Z,14.13
2018-03-02T03:50:00.638Z,15.60
2018-03-02T03:52:27.580Z,15.77
2018-03-02T03:54:54.521Z,16.07
2018-03-02T03:57:22.196Z,15.70
2018-03-02T03:59:49.133Z,16.27
2018-03-02T04:02:16.056Z,15.13
2018-03-02T04:04:42.177Z,16.83
2018-03-02T04:07:08.426Z,17.00
2018-03-02T04:09:35.337Z,16.77
2018-03-02T04:12:01.457Z,16.83
2018-03-02T04:14:27.913Z,15.70
2018-03-02T04:16:54.772Z,16.50
2018-03-02T04:19:21.774Z,16.33
2018-03-02T04:21:47.988Z,15.80
2018-03-02T04:24:14.213Z,15.97
2018-03-02T04:26:40.784Z,17.27
2018-03-02T04:29:07.658Z,15.57
2018-03-02T04:31:34.657Z,15.10
2018-03-02T04:34:00.802Z,16.27
2018-03-02T04:36:28.047Z,16.23
2018-03-02T04:38:54.947Z,14.73
2018-03-02T04:41:21.161Z,16.03
2018-03-02T04:43:47.398Z,16.03
2018-03-02T04:46:13.777Z,15.47
2018-03-02T04:48:40.806Z,17.17
2018-03-02T04:51:07.121Z,20.10
2018-03-02T04:53:33.465Z,23.17
2018-03-02T04:55:59.699Z,23.83
2018-03-02T04:58:25.945Z,16.83
2018-03-02T05:00:52.801Z,18.67
2018-03-02T05:03:19.174Z,16.27
2018-03-02T05:05:45.341Z,17.03
2018-03-02T05:08:12.262Z,16.70
2018-03-02T05:10:46.161Z,16.90
2018-03-02T05:13:13.079Z,16.17
2018-03-02T05:15:39.246Z,16.10
2018-03-02T05:18:06.179Z,17.97
2018-03-02T05:20:33.296Z,17.70
2018-03-02T05:22:59.413Z,17.80
2018-03-02T05:25:25.664Z,17.97
2018-03-02T05:27:52.584Z,18.60
2018-03-02T05:30:18.952Z,17.33
2018-03-02T05:32:45.908Z,20.20
2018-03-02T05:35:12.879Z,19.47
2018-03-02T05:37:39.109Z,18.87
2018-03-02T05:40:05.423Z,19.77
2018-03-02T05:42:31.645Z,19.40
2018-03-02T05:44:57.863Z,19.70
2018-03-02T05:47:24.883Z,18.00
2018-03-02T05:49:51.763Z,19.20
2018-03-02T05:52:18.136Z,19.20
2018-03-02T05:54:44.250Z,18.10
2018-03-02T05:57:10.484Z,18.80
2018-03-02T05:59:36.702Z,18.20
2018-03-02T06:02:03.030Z,21.87
2018-03-02T06:04:29.191Z,19.00
2018-03-02T06:06:56.212Z,18.67
2018-03-02T06:09:22.408Z,18.00
2018-03-02T06:11:48.574Z,20.47
2018-03-02T06:14:15.564Z,19.53
2018-03-02T06:16:41.716Z,20.50
2018-03-02T06:19:07.963Z,20.27
2018-03-02T06:21:34.456Z,19.17
2018-03-02T06:24:00.805Z,22.00
2018-03-02T06:26:26.954Z,20.73
2018-03-02T06:28:54.658Z,20.73
2018-03-02T06:31:20.900Z,21.43
2018-03-02T06:33:47.192Z,20.40
2018-03-02T06:36:14.191Z,21.90
2018-03-02T06:41:34.820Z,32.07
2018-03-02T06:44:01.060Z,29.50
2018-03-02T06:46:27.181Z,38.70
2018-03-02T06:48:53.393Z,37.90
2018-03-02T06:51:19.561Z,31.07
2018-03-02T06:53:45.933Z,30.90
2018-03-02T06:56:12.180Z,28.53
2018-03-02T06:58:38.376Z,25.70
2018-03-02T07:01:04.613Z,25.07
2018-03-02T07:03:30.836Z,23.07
2018-03-02T07:05:57.037Z,23.10
2018-03-02T07:08:23.242Z,21.70
2018-03-02T07:10:50.364Z,23.97
2018-03-02T07:13:16.624Z,23.70
2018-03-02T07:15:42.783Z,22.70
2018-03-02T07:18:09.128Z,24.50
2018-03-02T07:20:35.341Z,25.27
2018-03-02T07:23:01.474Z,24.37
2018-03-02T07:25:27.661Z,24.57
2018-03-02T07:27:53.940Z,21.97
2018-03-02T07:30:20.120Z,23.37
2018-03-02T07:32:46.297Z,23.00
2018-03-02T07:35:13.357Z,21.37
2018-03-02T07:37:40.307Z,23.27
2018-03-02T07:40:06.478Z,22.80
2018-03-02T07:42:32.640Z,23.40
2018-03-02T07:44:58.797Z,21.73
2018-03-02T07:47:25.092Z,23.40
2018-03-02T07:49:51.486Z,22.13
2018-03-02T07:52:17.647Z,21.90
2018-03-02T07:54:44.549Z,21.40
2018-03-02T07:57:10.774Z,22.10
2018-03-02T07:59:37.048Z,22.57
2018-03-02T08:02:03.963Z,20.90
2018-03-02T08:04:30.165Z,21.37
2018-03-02T08:06:56.328Z,24.17
2018-03-02T08:09:23.244Z,23.90
2018-03-02T08:11:49.444Z,23.53
2018-03-02T08:14:15.718Z,21.80
2018-03-02T08:16:42.071Z,22.53
2018-03-02T08:19:09.013Z,22.07
2018-03-02T08:21:36.042Z,25.67
2018-03-02T08:24:03.155Z,29.50
2018-03-02T08:26:29.506Z,23.20
2018-03-02T08:28:55.634Z,22.87
2018-03-02T08:31:21.741Z,24.33
2018-03-02T08:33:47.978Z,21.87
2018-03-02T08:36:14.172Z,25.60
2018-03-02T08:38:40.450Z,35.33
2018-03-02T08:41:07.332Z,25.83
2018-03-02T08:43:33.583Z,27.57
2018-03-02T08:45:59.778Z,30.70
2018-03-02T08:48:25.979Z,24.47
2018-03-02T08:50:52.925Z,26.97
2018-03-02T08:53:19.792Z,24.60
2018-03-02T08:55:46.210Z,27.33
2018-03-02T08:58:12.732Z,26.13
2018-03-02T09:00:39.240Z,25.37
2018-03-02T09:03:06.272Z,25.67
2018-03-02T09:05:32.544Z,26.30
2018-03-02T09:07:58.893Z,26.80
2018-03-02T09:10:25.165Z,25.40
2018-03-02T09:12:51.350Z,25.70
2018-03-02T09:15:17.537Z,22.50
2018-03-02T09:17:44.563Z,26.23
2018-03-02T09:20:10.869Z,24.93
2018-03-02T09:22:37.075Z,25.80
2018-03-02T09:25:03.287Z,23.30
2018-03-02T09:27:29.484Z,25.33
2018-03-02T09:29:56.482Z,25.77
2018-03-02T09:32:22.804Z,25.07
2018-03-02T09:34:48.957Z,24.83
2018-03-02T09:37:15.345Z,38.70
2018-03-02T09:39:41.656Z,25.77
2018-03-02T09:42:07.883Z,26.40
2018-03-02T09:44:34.053Z,26.20
2018-03-02T09:47:00.268Z,25.00
2018-03-02T09:49:26.503Z,24.53
2018-03-02T09:51:52.731Z,24.63
2018-03-02T09:54:18.974Z,28.13
2018-03-02T09:56:45.183Z,24.77
2018-03-02T09:59:11.307Z,26.97
2018-03-02T10:01:37.502Z,27.10
2018-03-02T10:04:04.027Z,27.30
2018-03-02T10:06:30.351Z,25.73
2018-03-02T10:08:56.476Z,26.07
2018-03-02T10:11:23.339Z,35.50
2018-03-02T10:13:49.695Z,29.57
2018-03-02T10:16:15.869Z,27.37
2018-03-02T10:18:42.945Z,28.40
2018-03-02T10:21:09.090Z,28.30
2018-03-02T10:23:35.306Z,27.50
2018-03-02T10:26:01.490Z,20.67
2018-03-02T10:28:28.455Z,27.03
2018-03-02T10:30:54.598Z,27.03
2018-03-02T10:33:20.805Z,27.23
2018-03-02T10:35:46.989Z,26.70
2018-03-02T10:38:13.892Z,28.40
2018-03-02T10:40:40.056Z,23.50
2018-03-02T10:43:06.924Z,26.40
2018-03-02T10:45:33.196Z,28.60
2018-03-02T10:47:59.517Z,25.60
2018-03-02T10:50:25.819Z,27.27
2018-03-02T10:52:52.013Z,26.47
2018-03-02T10:55:18.948Z,28.93
2018-03-02T10:57:46.661Z,26.50
2018-03-02T11:00:12.859Z,25.60
2018-03-02T11:02:45.781Z,24.83
2018-03-02T11:05:11.994Z,25.40
2018-03-02T11:07:38.211Z,27.00
2018-03-02T11:10:04.362Z,26.00
2018-03-02T11:12:30.546Z,24.53
2018-03-02T11:14:56.797Z,26.60
2018-03-02T11:17:23.194Z,26.60
2018-03-02T11:19:50.202Z,28.40
2018-03-02T11:22:16.365Z,27.40
2018-03-02T11:24:43.283Z,38.90
2018-03-02T11:27:10.645Z,133.60
2018-03-02T11:29:37.514Z,24.87
2018-03-02T11:32:03.688Z,33.00
2018-03-02T11:34:29.929Z,27.50
2018-03-02T11:36:57.592Z,27.20
2018-03-02T11:39:23.968Z,21.77
2018-03-02T11:41:57.252Z,28.43
2018-03-02T11:44:23.469Z,31.00
2018-03-02T11:46:50.394Z,29.77
2018-03-02T11:49:17.335Z,24.10
2018-03-02T11:51:43.626Z,26.13
2018-03-02T11:54:09.854Z,29.80
2018-03-02T11:56:36.004Z,27.33
2018-03-02T11:59:02.162Z,29.03
2018-03-02T12:01:28.350Z,28.17
2018-03-02T12:03:55.359Z,26.03
2018-03-02T12:06:21.507Z,21.80
2018-03-02T12:08:47.700Z,26.63
2018-03-02T12:11:14.004Z,28.37
2018-03-02T12:13:41.109Z,24.77
2018-03-02T12:16:07.433Z,28.23
2018-03-02T12:18:33.634Z,26.40
2018-03-02T12:20:59.990Z,24.87
2018-03-02T12:23:26.306Z,24.70
2018-03-02T12:25:52.583Z,26.67
2018-03-02T12:28:19.712Z,25.73
2018-03-02T12:30:46.720Z,23.83
2018-03-02T12:33:12.997Z,25.90
2018-03-02T12:35:39.939Z,25.30
2018-03-02T12:38:07.156Z,22.20
2018-03-02T12:40:33.291Z,45.67
2018-03-02T12:43:01.140Z,25.23
2018-03-02T12:45:27.487Z,26.93
2018-03-02T12:47:54.621Z,27.10
2018-03-02T12:50:22.236Z,25.47
2018-03-02T12:52:48.449Z,27.77
2018-03-02T12:55:15.392Z,24.70
2018-03-02T12:57:42.323Z,24.00
2018-03-02T13:00:09.300Z,27.57
2018-03-02T13:02:35.493Z,27.67
2018-03-02T13:05:02.517Z,25.70
2018-03-02T13:07:29.101Z,28.33
2018-03-02T13:09:55.468Z,28.07
2018-03-02T13:12:21.713Z,34.83
2018-03-02T13:14:49.023Z,33.37
2018-03-02T13:17:30.175Z,29.20
2018-03-02T13:19:57.123Z,27.27
2018-03-02T13:22:35.379Z,36.00
2018-03-02T13:25:01.727Z,35.23
2018-03-02T13:27:40.315Z,28.20
2018-03-02T13:30:06.657Z,27.47
2018-03-02T13:32:32.812Z,27.73
2018-03-02T13:35:11.941Z,26.40
2018-03-02T13:37:45.104Z,29.00
2018-03-02T13:43:13.505Z,55.53
2018-03-02T13:45:39.745Z,41.63
2018-03-02T13:51:10.529Z,27.70
2018-03-02T13:53:36.719Z,30.63
2018-03-02T13:56:03.281Z,24.60
2018-03-02T13:58:29.803Z,22.23
2018-03-02T14:00:56.711Z,27.40
2018-03-02T14:03:35.455Z,28.17
2018-03-02T14:06:01.576Z,25.57
2018-03-02T14:08:28.519Z,22.67
2018-03-02T14:10:54.750Z,26.63
2018-03-02T14:13:21.045Z,22.50
2018-03-02T14:15:47.282Z,24.00
2018-03-02T14:18:13.642Z,25.43
2018-03-02T14:20:40.593Z,26.13
2018-03-02T14:23:07.483Z,26.13
2018-03-02T14:25:33.686Z,26.70
2018-03-02T14:27:59.938Z,29.90
2018-03-02T14:30:26.148Z,27.30
2018-03-02T14:32:52.375Z,27.17
2018-03-02T14:35:18.548Z,26.57
2018-03-02T14:37:44.859Z,27.33
2018-03-02T14:40:12.136Z,26.10
2018-03-02T14:42:39.041Z,26.33
2018-03-02T14:45:05.286Z,28.57
2018-03-02T14:47:31.498Z,27.53
2018-03-02T14:49:57.777Z,27.90
2018-03-02T14:52:24.794Z,26.80
2018-03-02T14:54:51.915Z,31.20
2018-03-02T14:57:18.170Z,30.63
2018-03-02T14:59:44.365Z,28.70
2018-03-02T15:02:10.622Z,30.30
2018-03-02T15:04:37.641Z,27.33
2018-03-02T15:07:03.943Z,25.53
2018-03-02T15:09:30.238Z,23.83
2018-03-02T15:11:57.381Z,23.70
2018-03-02T15:14:24.317Z,25.77
2018-03-02T15:16:52.119Z,23.13
2018-03-02T15:19:18.418Z,26.70
2018-03-02T15:21:45.334Z,21.17
2018-03-02T15:24:11.540Z,25.40
2018-03-02T15:26:37.792Z,25.63
2018-03-02T15:29:04.205Z,27.80
2018-03-02T15:31:30.441Z,27.10
2018-03-02T15:33:56.645Z,27.13
2018-03-02T15:36:22.841Z,23.90
2018-03-02T15:38:49.893Z,24.90
2018-03-02T15:41:17.020Z,29.87
2018-03-02T15:43:43.968Z,29.83
2018-03-02T15:46:10.979Z,27.80
2018-03-02T15:48:37.232Z,24.73
2018-03-02T15:51:04.186Z,29.67
2018-03-02T15:53:31.035Z,29.87
2018-03-02T15:55:57.519Z,30.10
2018-03-02T15:58:23.691Z,30.70
2018-03-02T16:00:49.908Z,29.83
2018-03-02T16:03:16.772Z,32.23
2018-03-02T16:05:43.028Z,31.40
2018-03-02T16:08:09.452Z,30.00
2018-03-02T16:10:35.725Z,28.80
2018-03-02T16:13:02.601Z,30.07
2018-03-02T16:15:28.896Z,34.20
2018-03-02T16:17:55.871Z,30.23
2018-03-02T16:20:22.009Z,31.47
2018-03-02T16:22:48.137Z,34.03
2018-03-02T16:25:14.406Z,29.70
2018-03-02T16:27:41.333Z,30.27
2018-03-02T16:30:07.649Z,28.67
2018-03-02T16:32:33.936Z,29.10
2018-03-02T16:35:00.166Z,32.47
2018-03-02T16:37:26.442Z,32.50
2018-03-02T16:39:52.694Z,33.30
2018-03-02T16:42:19.705Z,31.53
2018-03-02T16:44:45.998Z,28.90
2018-03-02T16:47:12.474Z,27.50
2018-03-02T16:49:38.928Z,27.50
2018-03-02T16:52:07.124Z,29.97
2018-03-02T16:54:33.447Z,29.77
2018-03-02T16:57:00.340Z,29.77
2018-03-02T16:59:26.769Z,31.37
2018-03-02T17:01:52.885Z,30.73
2018-03-02T17:04:19.126Z,30.90
2018-03-02T17:06:45.364Z,29.20
2018-03-02T17:09:11.659Z,30.97
2018-03-02T17:11:38.834Z,27.77
2018-03-02T17:14:06.102Z,30.80
2018-03-02T17:16:33.038Z,30.77
2018-03-02T17:18:59.290Z,29.33
2018-03-02T17:21:27.274Z,30.03
2018-03-02T17:23:53.520Z,26.87
2018-03-02T17:26:19.926Z,28.37
2018-03-02T17:28:47.891Z,29.57
2018-03-02T17:31:15.110Z,27.27
2018-03-02T17:33:41.344Z,26.57
2018-03-02T17:36:10.253Z,24.43
2018-03-02T17:38:37.236Z,23.80
2018-03-02T17:41:04.980Z,25.37
2018-03-02T17:43:31.264Z,23.43
2018-03-02T17:45:59.016Z,24.90
2018-03-02T17:48:25.181Z,25.83
2018-03-02T17:50:52.135Z,24.83
2018-03-02T17:53:18.433Z,24.63
2018-03-02T17:55:45.444Z,25.90
2018-03-02T17:58:11.692Z,29.80
2018-03-02T18:00:37.872Z,27.50
2018-03-02T18:03:04.203Z,26.10
2018-03-02T18:05:31.326Z,25.57
2018-03-02T18:07:57.500Z,25.47
2018-03-02T18:10:23.953Z,25.57
2018-03-02T18:12:50.247Z,25.30
2018-03-02T18:15:16.526Z,26.93
2018-03-02T18:17:43.633Z,26.10
2018-03-02T18:20:09.963Z,25.70
2018-03-02T18:22:36.185Z,24.33
2018-03-02T18:25:02.448Z,26.10
2018-03-02T18:27:29.459Z,25.27
2018-03-02T18:29:55.680Z,25.47
2018-03-02T18:32:22.022Z,25.00
2018-03-02T18:34:48.324Z,26.60
2018-03-02T18:37:14.790Z,26.57
2018-03-02T18:39:41.034Z,31.90
2018-03-02T18:42:08.060Z,44.07
2018-03-02T18:44:34.217Z,56.17
2018-03-02T18:47:01.222Z,67.70
2018-03-02T18:49:27.404Z,52.93
2018-03-02T18:51:53.628Z,45.13
2018-03-02T18:54:20.049Z,45.50
2018-03-02T18:56:47.073Z,46.97
2018-03-02T18:59:14.137Z,48.10
2018-03-02T19:01:40.317Z,34.63
2018-03-02T19:04:06.495Z,34.17
2018-03-02T19:06:33.457Z,36.23
2018-03-02T19:08:59.608Z,38.57
2018-03-02T19:11:25.743Z,33.63
2018-03-02T19:13:52.063Z,31.97
2018-03-02T19:16:18.326Z,30.00
2018-03-02T19:18:45.221Z,28.57
2018-03-02T19:21:11.571Z,27.90
2018-03-02T19:23:37.832Z,28.53
2018-03-02T19:26:04.931Z,26.60
2018-03-02T19:28:31.315Z,27.30
2018-03-02T19:30:57.795Z,28.63
2018-03-02T19:33:24.437Z,30.50
2018-03-02T19:35:51.385Z,31.37
2018-03-02T19:38:17.910Z,34.20
2018-03-02T19:40:45.857Z,31.80
2018-03-02T19:43:12.209Z,31.30
2018-03-02T19:45:39.965Z,32.87
2018-03-02T19:48:06.309Z,33.23
2018-03-02T19:50:32.708Z,35.20
2018-03-02T19:52:59.010Z,35.43
2018-03-02T19:55:25.280Z,36.80
2018-03-02T19:57:51.886Z,35.20
2018-03-02T20:00:18.123Z,38.30
2018-03-02T20:02:44.680Z,39.50
2018-03-02T20:05:12.041Z,40.47
2018-03-02T20:07:38.406Z,42.10
2018-03-02T20:10:04.615Z,44.03
2018-03-02T20:12:31.652Z,45.77
2018-03-02T20:14:58.729Z,41.70
2018-03-02T20:17:25.793Z,41.80
2018-03-02T20:19:52.201Z,37.90
2018-03-02T20:22:19.236Z,37.57
2018-03-02T20:24:46.153Z,37.23
2018-03-02T20:27:13.917Z,35.33
2018-03-02T20:29:40.142Z,37.17
2018-03-02T20:32:06.393Z,37.47
2018-03-02T20:34:33.467Z,41.10
2018-03-02T20:36:59.682Z,37.77
2018-03-02T20:39:26.999Z,33.20
2018-03-02T20:41:53.228Z,31.60
2018-03-02T20:44:19.574Z,31.90
2018-03-02T20:46:46.614Z,34.20
2018-03-02T20:49:13.587Z,33.50
2018-03-02T20:51:39.826Z,30.10
2018-03-02T20:54:06.892Z,30.23
2018-03-02T20:56:34.152Z,30.00
2018-03-02T20:59:00.415Z,33.37
2018-03-02T21:01:27.417Z,32.80
2018-03-02T21:03:53.740Z,33.40
2018-03-02T21:06:20.875Z,34.20
2018-03-02T21:08:47.099Z,33.97
2018-03-02T21:11:13.290Z,37.87
2018-03-02T21:13:40.330Z,37.97
2018-03-02T21:16:08.364Z,42.50
2018-03-02T21:18:34.803Z,39.70
2018-03-02T21:21:01.123Z,34.80
2018-03-02T21:23:27.508Z,34.97
2018-03-02T21:25:54.611Z,31.67
2018-03-02T21:28:20.868Z,33.87
2018-03-02T21:30:47.877Z,31.13
2018-03-02T21:33:14.108Z,37.63
2018-03-02T21:35:40.399Z,38.47
2018-03-02T21:38:06.634Z,38.03
2018-03-02T21:40:32.857Z,35.80
2018-03-02T21:42:59.126Z,36.70
2018-03-02T21:45:26.062Z,37.83
2018-03-02T21:47:53.216Z,35.20
2018-03-02T21:50:20.174Z,30.57
2018-03-02T21:52:47.798Z,32.67
2018-03-02T21:55:14.018Z,33.40
2018-03-02T21:57:40.210Z,31.90
2018-03-02T22:00:07.140Z,31.03
2018-03-02T22:02:34.147Z,29.47
2018-03-02T22:05:00.340Z,33.23
2018-03-02T22:07:26.544Z,31.90
2018-03-02T22:09:53.497Z,29.50
2018-03-02T22:12:19.766Z,28.70
2018-03-02T22:14:46.152Z,27.77
2018-03-02T22:17:13.098Z,29.20
2018-03-02T22:19:39.274Z,29.30
2018-03-02T22:22:05.459Z,28.47
2018-03-02T22:24:31.634Z,28.70
2018-03-02T22:26:57.836Z,28.80
2018-03-02T22:29:23.965Z,31.93
2018-03-02T22:31:50.095Z,30.33
2018-03-02T22:34:16.239Z,30.23
2018-03-02T22:36:42.492Z,28.03
2018-03-02T22:39:09.068Z,30.73
2018-03-02T22:41:35.797Z,28.07
2018-03-02T22:44:02.532Z,30.37
2018-03-02T22:46:28.700Z,29.33
2018-03-02T22:48:54.880Z,28.50
2018-03-02T22:51:20.972Z,31.00
2018-03-02T22:53:48.007Z,29.70
2018-03-02T22:56:14.837Z,28.70
2018-03-02T22:58:41.029Z,31.17
2018-03-02T23:01:07.170Z,30.80
2018-03-02T23:03:33.310Z,30.70
2018-03-02T23:05:59.541Z,30.80
2018-03-02T23:08:26.582Z,30.60
2018-03-02T23:10:52.796Z,30.77
2018-03-02T23:13:19.090Z,31.07
2018-03-02T23:15:45.298Z,30.00
2018-03-02T23:18:11.478Z,30.53
2018-03-02T23:20:37.739Z,31.30
2018-03-02T23:23:04.625Z,30.20
2018-03-02T23:25:30.967Z,30.43
2018-03-02T23:27:57.326Z,29.77
2018-03-02T23:30:24.323Z,29.77
2018-03-02T23:32:50.518Z,31.33
2018-03-02T23:35:17.372Z,30.00
2018-03-02T23:37:43.805Z,29.43
2018-03-02T23:40:09.931Z,30.57
2018-03-02T23:42:36.228Z,31.77
2018-03-02T23:45:03.215Z,30.80
2018-03-02T23:47:29.449Z,31.07
2018-03-02T23:49:55.645Z,30.17
2018-03-02T23:52:21.788Z,31.53
2018-03-02T23:54:47.976Z,30.90
2018-03-02T23:57:15.020Z,30.10
2018-03-02T23:59:42.057Z,32.00
